sensor_id;sensor_type;location;lat;lon;timestamp;pressure;altitude;pressure_sealevel;temperature;humidity
32933;BME280;19444;50.518;10.870;2023-04-08T00:00:07;96737.56;;;4.13;100.00
32933;BME280;19444;50.518;10.870;2023-04-08T00:03:04;96737.53;;;4.08;100.00
32933;BME280;19444;50.518;10.870;2023-04-08T00:06:01;96732.72;;;4.00;100.00
32933;BME280;19444;50.518;10.870;2023-04-08T00:08:59;96727.72;;;4.09;100.00
32933;BME280;19444;50.518;10.870;2023-04-08T00:11:56;96733.81;;;4.09;100.00
32933;BME280;19444;50.518;10.870;2023-04-08T00:14:53;96736.22;;;4.06;100.00
32933;BME280;19444;50.518;10.870;2023-04-08T00:17:50;96735.91;;;4.02;100.00
32933;BME280;19444;50.518;10.870;2023-04-08T00:20:49;96731.97;;;4.05;100.00
32933;BME280;19444;50.518;10.870;2023-04-08T00:23:46;96728.78;;;4.03;100.00
32933;BME280;19444;50.518;10.870;2023-04-08T00:26:43;96735.91;;;4.02;100.00
32933;BME280;19444;50.518;10.870;2023-04-08T00:29:40;96743.59;;;3.98;100.00
32933;BME280;19444;50.518;10.870;2023-04-08T00:32:37;96730.88;;;4.00;100.00
32933;BME280;19444;50.518;10.870;2023-04-08T00:35:34;96742.31;;;4.11;100.00
32933;BME280;19444;50.518;10.870;2023-04-08T00:38:31;96741.47;;;4.00;100.00
32933;BME280;19444;50.518;10.870;2023-04-08T00:41:27;96738.06;;;4.05;100.00
32933;BME280;19444;50.518;10.870;2023-04-08T00:44:24;96732.19;;;3.98;100.00
32933;BME280;19444;50.518;10.870;2023-04-08T00:47:21;96738.81;;;4.00;100.00
32933;BME280;19444;50.518;10.870;2023-04-08T00:50:18;96742.03;;;4.08;100.00
32933;BME280;19444;50.518;10.870;2023-04-08T00:53:18;96744.13;;;3.95;100.00
32933;BME280;19444;50.518;10.870;2023-04-08T00:56:15;96739.88;;;3.94;100.00
32933;BME280;19444;50.518;10.870;2023-04-08T00:59:12;96738.81;;;3.95;100.00
32933;BME280;19444;50.518;10.870;2023-04-08T01:02:30;96742.75;;;3.88;100.00
32933;BME280;19444;50.518;10.870;2023-04-08T01:05:52;96741.94;;;3.82;100.00
32933;BME280;19444;50.518;10.870;2023-04-08T01:08:53;96737.72;;;3.91;100.00
32933;BME280;19444;50.518;10.870;2023-04-08T01:11:51;96739.63;;;4.01;100.00
32933;BME280;19444;50.518;10.870;2023-04-08T01:14:54;96750.94;;;3.76;100.00
32933;BME280;19444;50.518;10.870;2023-04-08T01:17:56;96749.69;;;3.94;100.00
32933;BME280;19444;50.518;10.870;2023-04-08T01:20:54;96741.16;;;3.92;100.00
32933;BME280;19444;50.518;10.870;2023-04-08T01:24:28;96762.69;;;3.95;100.00
32933;BME280;19444;50.518;10.870;2023-04-08T01:27:27;96755.28;;;4.03;100.00
32933;BME280;19444;50.518;10.870;2023-04-08T01:30:27;96749.44;;;3.95;100.00
32933;BME280;19444;50.518;10.870;2023-04-08T01:33:27;96744.03;;;3.80;100.00
32933;BME280;19444;50.518;10.870;2023-04-08T01:36:24;96756.50;;;3.80;100.00
32933;BME280;19444;50.518;10.870;2023-04-08T01:39:23;96757.03;;;3.77;100.00
32933;BME280;19444;50.518;10.870;2023-04-08T01:42:24;96758.63;;;3.83;100.00
32933;BME280;19444;50.518;10.870;2023-04-08T01:45:22;96754.91;;;3.79;100.00
32933;BME280;19444;50.518;10.870;2023-04-08T01:48:19;96757.78;;;3.72;100.00
32933;BME280;19444;50.518;10.870;2023-04-08T01:51:17;96755.47;;;3.86;100.00
32933;BME280;19444;50.518;10.870;2023-04-08T01:54:15;96749.03;;;3.71;100.00
32933;BME280;19444;50.518;10.870;2023-04-08T01:57:22;96748.28;;;3.76;100.00
32933;BME280;19444;50.518;10.870;2023-04-08T02:00:23;96747.41;;;3.65;100.00
32933;BME280;19444;50.518;10.870;2023-04-08T02:03:23;96752.41;;;3.57;100.00
32933;BME280;19444;50.518;10.870;2023-04-08T02:06:22;96754.22;;;3.51;100.00
32933;BME280;19444;50.518;10.870;2023-04-08T02:09:19;96755.78;;;3.47;100.00
32933;BME280;19444;50.518;10.870;2023-04-08T02:12:16;96757.88;;;3.45;100.00
32933;BME280;19444;50.518;10.870;2023-04-08T02:15:13;96752.53;;;3.35;100.00
32933;BME280;19444;50.518;10.870;2023-04-08T02:18:15;96756.38;;;3.17;100.00
32933;BME280;19444;50.518;10.870;2023-04-08T02:21:15;96755.44;;;3.33;100.00
32933;BME280;19444;50.518;10.870;2023-04-08T02:24:15;96761.31;;;3.40;100.00
32933;BME280;19444;50.518;10.870;2023-04-08T02:27:13;96764.72;;;3.36;100.00
32933;BME280;19444;50.518;10.870;2023-04-08T02:30:12;96753.84;;;3.32;100.00
32933;BME280;19444;50.518;10.870;2023-04-08T02:33:10;96755.47;;;3.38;100.00
32933;BME280;19444;50.518;10.870;2023-04-08T02:36:08;96757.59;;;3.41;100.00
32933;BME280;19444;50.518;10.870;2023-04-08T02:39:06;96749.97;;;3.50;100.00
32933;BME280;19444;50.518;10.870;2023-04-08T02:42:03;96752.84;;;3.38;100.00
32933;BME280;19444;50.518;10.870;2023-04-08T02:45:01;96753.69;;;3.54;100.00
32933;BME280;19444;50.518;10.870;2023-04-08T02:47:59;96748.94;;;3.51;100.00
32933;BME280;19444;50.518;10.870;2023-04-08T02:50:56;96745.41;;;3.40;100.00
32933;BME280;19444;50.518;10.870;2023-04-08T02:53:53;96747.03;;;3.47;100.00
32933;BME280;19444;50.518;10.870;2023-04-08T02:56:51;96752.31;;;3.47;100.00
32933;BME280;19444;50.518;10.870;2023-04-08T02:59:47;96757.63;;;3.47;100.00
32933;BME280;19444;50.518;10.870;2023-04-08T03:02:44;96753.09;;;3.42;100.00
32933;BME280;19444;50.518;10.870;2023-04-08T03:05:42;96755.22;;;3.40;100.00
32933;BME280;19444;50.518;10.870;2023-04-08T03:08:38;96752.84;;;3.38;100.00
32933;BME280;19444;50.518;10.870;2023-04-08T03:11:35;96755.81;;;3.52;100.00
32933;BME280;19444;50.518;10.870;2023-04-08T03:14:32;96760.09;;;3.58;100.00
32933;BME280;19444;50.518;10.870;2023-04-08T03:17:29;96759.47;;;3.41;100.00
32933;BME280;19444;50.518;10.870;2023-04-08T03:20:29;96755.63;;;3.64;100.00
32933;BME280;19444;50.518;10.870;2023-04-08T03:23:26;96753.69;;;3.54;100.00
32933;BME280;19444;50.518;10.870;2023-04-08T03:26:23;96760.84;;;3.54;100.00
32933;BME280;19444;50.518;10.870;2023-04-08T03:29:20;96758.88;;;3.34;100.00
32933;BME280;19444;50.518;10.870;2023-04-08T03:32:17;96771.06;;;3.35;100.00
32933;BME280;19444;50.518;10.870;2023-04-08T03:35:14;96764.44;;;3.32;100.00
32933;BME280;19444;50.518;10.870;2023-04-08T03:38:11;96769.00;;;3.42;100.00
32933;BME280;19444;50.518;10.870;2023-04-08T03:41:08;96773.84;;;3.18;100.00
32933;BME280;19444;50.518;10.870;2023-04-08T03:44:05;96764.72;;;3.36;100.00
32933;BME280;19444;50.518;10.870;2023-04-08T03:47:01;96778.44;;;3.28;100.00
32933;BME280;19444;50.518;10.870;2023-04-08T03:49:58;96776.22;;;3.14;100.00
32933;BME280;19444;50.518;10.870;2023-04-08T03:52:55;96777.44;;;3.02;100.00
32933;BME280;19444;50.518;10.870;2023-04-08T03:55:52;96787.06;;;3.13;100.00
32933;BME280;19444;50.518;10.870;2023-04-08T03:58:52;96783.81;;;3.06;100.00
32933;BME280;19444;50.518;10.870;2023-04-08T04:01:49;96785.69;;;3.05;100.00
32933;BME280;19444;50.518;10.870;2023-04-08T04:04:47;96790.75;;;2.80;100.00
32933;BME280;19444;50.518;10.870;2023-04-08T04:07:44;96801.16;;;2.92;100.00
32933;BME280;19444;50.518;10.870;2023-04-08T04:10:41;96802.03;;;2.97;100.00
32933;BME280;19444;50.518;10.870;2023-04-08T04:13:37;96787.38;;;2.90;100.00
32933;BME280;19444;50.518;10.870;2023-04-08T04:16:34;96797.97;;;2.90;100.00
32933;BME280;19444;50.518;10.870;2023-04-08T04:19:31;96801.97;;;2.92;100.00
32933;BME280;19444;50.518;10.870;2023-04-08T04:22:28;96799.00;;;2.83;100.00
32933;BME280;19444;50.518;10.870;2023-04-08T04:25:25;96798.03;;;2.95;100.00
32933;BME280;19444;50.518;10.870;2023-04-08T04:28:22;96807.22;;;2.87;100.00
32933;BME280;19444;50.518;10.870;2023-04-08T04:31:21;96805.81;;;2.79;100.00
32933;BME280;19444;50.518;10.870;2023-04-08T04:34:19;96809.25;;;2.80;100.00
32933;BME280;19444;50.518;10.870;2023-04-08T04:37:15;96809.22;;;2.75;100.00
32933;BME280;19444;50.518;10.870;2023-04-08T04:40:13;96815.06;;;2.77;100.00
32933;BME280;19444;50.518;10.870;2023-04-08T04:43:09;96821.31;;;2.66;100.00
32933;BME280;19444;50.518;10.870;2023-04-08T04:46:06;96819.06;;;2.79;100.00
32933;BME280;19444;50.518;10.870;2023-04-08T04:49:04;96828.78;;;2.74;100.00
32933;BME280;19444;50.518;10.870;2023-04-08T04:52:01;96818.59;;;2.88;100.00
32933;BME280;19444;50.518;10.870;2023-04-08T04:54:58;96826.34;;;2.67;100.00
32933;BME280;19444;50.518;10.870;2023-04-08T04:57:55;96815.31;;;2.75;100.00
32933;BME280;19444;50.518;10.870;2023-04-08T05:00:52;96823.19;;;2.70;100.00
32933;BME280;19444;50.518;10.870;2023-04-08T05:03:49;96834.28;;;2.67;100.00
32933;BME280;19444;50.518;10.870;2023-04-08T05:06:46;96838.81;;;2.72;100.00
32933;BME280;19444;50.518;10.870;2023-04-08T05:09:42;96844.22;;;2.82;100.00
32933;BME280;19444;50.518;10.870;2023-04-08T05:12:39;96827.06;;;2.84;100.00
32933;BME280;19444;50.518;10.870;2023-04-08T05:15:37;96830.88;;;2.72;100.00
32933;BME280;19444;50.518;10.870;2023-04-08T05:18:33;96828.13;;;2.89;100.00
32933;BME280;19444;50.518;10.870;2023-04-08T05:21:30;96836.50;;;2.75;100.00
32933;BME280;19444;50.518;10.870;2023-04-08T05:24:28;96828.41;;;2.87;100.00
32933;BME280;19444;50.518;10.870;2023-04-08T05:27:25;96834.19;;;2.84;100.00
32933;BME280;19444;50.518;10.870;2023-04-08T05:30:22;96838.00;;;2.93;100.00
32933;BME280;19444;50.518;10.870;2023-04-08T05:33:18;96836.97;;;2.99;100.00
32933;BME280;19444;50.518;10.870;2023-04-08T05:36:15;96841.78;;;2.75;100.00
32933;BME280;19444;50.518;10.870;2023-04-08T05:39:12;96853.56;;;2.90;100.00
32933;BME280;19444;50.518;10.870;2023-04-08T05:42:09;96852.66;;;2.79;100.00
32933;BME280;19444;50.518;10.870;2023-04-08T05:45:09;96860.19;;;2.92;100.00
32933;BME280;19444;50.518;10.870;2023-04-08T05:48:06;96862.09;;;2.97;100.00
32933;BME280;19444;50.518;10.870;2023-04-08T05:51:03;96861.06;;;2.98;100.00
32933;BME280;19444;50.518;10.870;2023-04-08T05:54:00;96858.41;;;2.98;100.00
32933;BME280;19444;50.518;10.870;2023-04-08T05:56:56;96868.63;;;2.89;100.00
32933;BME280;19444;50.518;10.870;2023-04-08T05:59:53;96861.06;;;2.98;100.00
32933;BME280;19444;50.518;10.870;2023-04-08T06:02:50;96864.81;;;3.02;100.00
32933;BME280;19444;50.518;10.870;2023-04-08T06:05:47;96866.69;;;3.06;100.00
32933;BME280;19444;50.518;10.870;2023-04-08T06:08:44;96870.84;;;2.97;100.00
32933;BME280;19444;50.518;10.870;2023-04-08T06:11:41;96860.50;;;2.96;100.00
32933;BME280;19444;50.518;10.870;2023-04-08T06:14:38;96869.09;;;3.08;100.00
32933;BME280;19444;50.518;10.870;2023-04-08T06:17:36;96876.22;;;3.02;100.00
32933;BME280;19444;50.518;10.870;2023-04-08T06:20:34;96883.19;;;3.13;100.00
32933;BME280;19444;50.518;10.870;2023-04-08T06:23:32;96892.63;;;3.04;100.00
32933;BME280;19444;50.518;10.870;2023-04-08T06:26:28;96887.88;;;3.06;100.00
32933;BME280;19444;50.518;10.870;2023-04-08T06:29:25;96881.16;;;3.21;100.00
32933;BME280;19444;50.518;10.870;2023-04-08T06:32:22;96887.94;;;3.11;100.00
32933;BME280;19444;50.518;10.870;2023-04-08T06:35:19;96881.19;;;3.26;100.00
32933;BME280;19444;50.518;10.870;2023-04-08T06:38:16;96890.63;;;3.17;100.00
32933;BME280;19444;50.518;10.870;2023-04-08T06:41:13;96892.53;;;3.21;100.00
32933;BME280;19444;50.518;10.870;2023-04-08T06:44:10;96888.63;;;3.29;100.00
32933;BME280;19444;50.518;10.870;2023-04-08T06:47:06;96893.81;;;3.46;100.00
32933;BME280;19444;50.518;10.870;2023-04-08T06:50:04;96887.25;;;3.53;100.00
32933;BME280;19444;50.518;10.870;2023-04-08T06:53:01;96893.13;;;3.60;100.00
32933;BME280;19444;50.518;10.870;2023-04-08T06:55:58;96900.38;;;3.70;100.00
32933;BME280;19444;50.518;10.870;2023-04-08T06:58:55;96909.97;;;3.76;100.00
32933;BME280;19444;50.518;10.870;2023-04-08T07:01:52;96912.34;;;3.78;100.00
32933;BME280;19444;50.518;10.870;2023-04-08T07:04:49;96907.88;;;3.83;100.00
32933;BME280;19444;50.518;10.870;2023-04-08T07:07:46;96906.53;;;3.81;100.00
32933;BME280;19444;50.518;10.870;2023-04-08T07:10:43;96905.88;;;4.00;100.00
32933;BME280;19444;50.518;10.870;2023-04-08T07:13:40;96902.75;;;4.09;100.00
32933;BME280;19444;50.518;10.870;2023-04-08T07:16:37;96911.25;;;4.11;100.00
32933;BME280;19444;50.518;10.870;2023-04-08T07:19:34;96905.81;;;4.33;100.00
32933;BME280;19444;50.518;10.870;2023-04-08T07:22:31;96908.97;;;4.29;100.00
32933;BME280;19444;50.518;10.870;2023-04-08T07:25:28;96922.00;;;4.31;100.00
32933;BME280;19444;50.518;10.870;2023-04-08T07:28:25;96919.97;;;4.06;100.00
32933;BME280;19444;50.518;10.870;2023-04-08T07:31:22;96926.88;;;4.07;100.00
32933;BME280;19444;50.518;10.870;2023-04-08T07:34:19;96928.69;;;4.02;100.00
32933;BME280;19444;50.518;10.870;2023-04-08T07:37:16;96929.41;;;3.87;100.00
32933;BME280;19444;50.518;10.870;2023-04-08T07:40:13;96934.16;;;3.85;100.00
32933;BME280;19444;50.518;10.870;2023-04-08T07:43:10;96931.28;;;3.91;100.00
32933;BME280;19444;50.518;10.870;2023-04-08T07:46:07;96925.00;;;4.03;100.00
32933;BME280;19444;50.518;10.870;2023-04-08T07:49:04;96922.47;;;4.23;100.00
32933;BME280;19444;50.518;10.870;2023-04-08T07:52:02;96928.88;;;4.27;100.00
32933;BME280;19444;50.518;10.870;2023-04-08T07:54:59;96928.22;;;4.52;100.00
32933;BME280;19444;50.518;10.870;2023-04-08T07:57:57;96937.00;;;4.63;100.00
32933;BME280;19444;50.518;10.870;2023-04-08T08:00:54;96931.75;;;4.68;100.00
32933;BME280;19444;50.518;10.870;2023-04-08T08:03:52;96953.81;;;4.78;100.00
32933;BME280;19444;50.518;10.870;2023-04-08T08:06:50;96957.81;;;4.81;100.00
32933;BME280;19444;50.518;10.870;2023-04-08T08:09:47;96956.41;;;4.63;100.00
32933;BME280;19444;50.518;10.870;2023-04-08T08:12:44;96967.44;;;4.40;100.00
32933;BME280;19444;50.518;10.870;2023-04-08T08:15:41;96962.59;;;4.32;100.00
32933;BME280;19444;50.518;10.870;2023-04-08T08:18:39;96953.56;;;4.80;100.00
32933;BME280;19444;50.518;10.870;2023-04-08T08:21:36;96953.59;;;4.90;100.00
32933;BME280;19444;50.518;10.870;2023-04-08T08:24:33;96962.53;;;4.69;100.00
32933;BME280;19444;50.518;10.870;2023-04-08T08:27:30;96967.66;;;4.91;100.00
32933;BME280;19444;50.518;10.870;2023-04-08T08:30:27;96971.88;;;4.76;100.00
32933;BME280;19444;50.518;10.870;2023-04-08T08:33:24;96983.78;;;4.74;100.00
32933;BME280;19444;50.518;10.870;2023-04-08T08:36:21;96970.06;;;4.87;100.00
32933;BME280;19444;50.518;10.870;2023-04-08T08:39:18;96977.22;;;4.87;100.00
32933;BME280;19444;50.518;10.870;2023-04-08T08:42:22;96985.38;;;4.70;100.00
32933;BME280;19444;50.518;10.870;2023-04-08T08:45:19;96991.31;;;4.45;100.00
32933;BME280;19444;50.518;10.870;2023-04-08T08:48:16;96995.28;;;4.42;100.00
32933;BME280;19444;50.518;10.870;2023-04-08T08:51:13;97002.75;;;4.45;100.00
32933;BME280;19444;50.518;10.870;2023-04-08T08:54:10;97009.16;;;4.54;100.00
32933;BME280;19444;50.518;10.870;2023-04-08T08:57:19;97002.78;;;4.55;100.00
32933;BME280;19444;50.518;10.870;2023-04-08T09:00:16;97011.56;;;4.56;100.00
32933;BME280;19444;50.518;10.870;2023-04-08T09:03:19;97011.06;;;4.64;100.00
32933;BME280;19444;50.518;10.870;2023-04-08T09:06:17;97015.06;;;4.62;100.00
32933;BME280;19444;50.518;10.870;2023-04-08T09:09:14;97028.38;;;4.67;100.00
32933;BME280;19444;50.518;10.870;2023-04-08T09:12:11;97025.66;;;4.62;100.00
32933;BME280;19444;50.518;10.870;2023-04-08T09:15:09;97015.97;;;4.82;100.00
32933;BME280;19444;50.518;10.870;2023-04-08T09:18:21;97025.22;;;4.75;100.00
32933;BME280;19444;50.518;10.870;2023-04-08T09:21:22;97030.91;;;4.51;100.00
32933;BME280;19444;50.518;10.870;2023-04-08T09:24:28;97033.25;;;4.48;100.00
32933;BME280;19444;50.518;10.870;2023-04-08T09:27:35;97042.00;;;4.43;100.00
32933;BME280;19444;50.518;10.870;2023-04-08T09:30:32;97047.25;;;4.33;100.00
32933;BME280;19444;50.518;10.870;2023-04-08T09:33:32;97049.50;;;4.51;100.00
32933;BME280;19444;50.518;10.870;2023-04-08T09:36:29;97047.50;;;4.69;100.00
32933;BME280;19444;50.518;10.870;2023-04-08T09:39:26;97042.44;;;4.67;100.00
32933;BME280;19444;50.518;10.870;2023-04-08T09:42:24;97052.13;;;4.94;100.00
32933;BME280;19444;50.518;10.870;2023-04-08T09:45:22;97046.59;;;4.95;100.00
32933;BME280;19444;50.518;10.870;2023-04-08T09:48:24;97049.69;;;4.82;100.00
32933;BME280;19444;50.518;10.870;2023-04-08T09:51:23;97059.06;;;5.00;100.00
32933;BME280;19444;50.518;10.870;2023-04-08T09:54:22;97069.28;;;4.71;100.00
32933;BME280;19444;50.518;10.870;2023-04-08T09:57:50;97053.59;;;4.69;100.00
32933;BME280;19444;50.518;10.870;2023-04-08T10:00:50;97071.59;;;4.62;100.00
32933;BME280;19444;50.518;10.870;2023-04-08T10:03:53;97069.94;;;4.56;100.00
32933;BME280;19444;50.518;10.870;2023-04-08T10:06:57;97069.88;;;4.46;100.00
32933;BME280;19444;50.518;10.870;2023-04-08T10:09:59;97060.84;;;4.42;100.00
32933;BME280;19444;50.518;10.870;2023-04-08T10:12:56;97060.13;;;4.56;100.00
32933;BME280;19444;50.518;10.870;2023-04-08T10:16:23;97066.72;;;4.91;100.00
32933;BME280;19444;50.518;10.870;2023-04-08T10:19:37;97070.13;;;4.81;100.00
32933;BME280;19444;50.518;10.870;2023-04-08T10:22:46;97059.75;;;4.80;100.00
32933;BME280;19444;50.518;10.870;2023-04-08T10:25:47;97065.03;;;4.75;100.00
32933;BME280;19444;50.518;10.870;2023-04-08T10:28:44;97065.56;;;4.72;100.00
32933;BME280;19444;50.518;10.870;2023-04-08T10:31:41;97057.88;;;4.75;100.00
32933;BME280;19444;50.518;10.870;2023-04-08T10:34:52;97063.31;;;5.01;100.00
32933;BME280;19444;50.518;10.870;2023-04-08T10:37:49;97061.47;;;5.01;100.00
32933;BME280;19444;50.518;10.870;2023-04-08T10:40:48;97065.63;;;4.82;100.00
32933;BME280;19444;50.518;10.870;2023-04-08T10:43:46;97061.72;;;5.00;100.00
32933;BME280;19444;50.518;10.870;2023-04-08T10:46:47;97058.19;;;5.31;100.00
32933;BME280;19444;50.518;10.870;2023-04-08T10:49:44;97061.53;;;5.11;100.00
32933;BME280;19444;50.518;10.870;2023-04-08T10:52:47;97060.06;;;5.41;100.00
32933;BME280;19444;50.518;10.870;2023-04-08T10:55:46;97074.00;;;5.06;100.00
32933;BME280;19444;50.518;10.870;2023-04-08T10:58:51;97067.88;;;5.05;100.00
32933;BME280;19444;50.518;10.870;2023-04-08T11:01:48;97061.59;;;5.27;100.00
32933;BME280;19444;50.518;10.870;2023-04-08T11:04:45;97071.47;;;5.31;100.00
32933;BME280;19444;50.518;10.870;2023-04-08T11:07:43;97079.81;;;5.03;100.00
32933;BME280;19444;50.518;10.870;2023-04-08T11:10:41;97075.47;;;4.87;100.00
32933;BME280;19444;50.518;10.870;2023-04-08T11:13:42;97076.03;;;4.89;100.00
32933;BME280;19444;50.518;10.870;2023-04-08T11:16:48;97085.13;;;5.03;100.00
32933;BME280;19444;50.518;10.870;2023-04-08T11:19:46;97072.91;;;5.02;100.00
32933;BME280;19444;50.518;10.870;2023-04-08T11:22:43;97076.13;;;5.09;100.00
32933;BME280;19444;50.518;10.870;2023-04-08T11:25:42;97079.00;;;4.97;100.00
32933;BME280;19444;50.518;10.870;2023-04-08T11:28:39;97076.28;;;4.87;100.00
32933;BME280;19444;50.518;10.870;2023-04-08T11:31:36;97080.00;;;4.91;100.00
32933;BME280;19444;50.518;10.870;2023-04-08T11:34:37;97079.25;;;4.96;100.00
32933;BME280;19444;50.518;10.870;2023-04-08T11:37:39;97079.03;;;5.07;100.00
32933;BME280;19444;50.518;10.870;2023-04-08T11:40:37;97076.66;;;5.11;100.00
32933;BME280;19444;50.518;10.870;2023-04-08T11:43:34;97083.03;;;5.05;100.00
32933;BME280;19444;50.518;10.870;2023-04-08T11:46:36;97083.84;;;5.10;100.00
32933;BME280;19444;50.518;10.870;2023-04-08T11:49:44;97075.72;;;5.37;100.00
32933;BME280;19444;50.518;10.870;2023-04-08T11:52:47;97078.03;;;5.19;100.00
32933;BME280;19444;50.518;10.870;2023-04-08T11:55:45;97075.50;;;5.44;100.00
32933;BME280;19444;50.518;10.870;2023-04-08T11:58:42;97062.50;;;5.53;100.00
32933;BME280;19444;50.518;10.870;2023-04-08T12:01:39;97069.47;;;5.74;100.00
32933;BME280;19444;50.518;10.870;2023-04-08T12:04:36;97062.09;;;5.91;100.00
32933;BME280;19444;50.518;10.870;2023-04-08T12:07:32;97062.63;;;5.93;100.00
32933;BME280;19444;50.518;10.870;2023-04-08T12:10:29;97064.91;;;5.59;100.00
32933;BME280;19444;50.518;10.870;2023-04-08T12:13:26;97077.22;;;5.86;100.00
32933;BME280;19444;50.518;10.870;2023-04-08T12:16:23;97075.38;;;5.86;100.00
32933;BME280;19444;50.518;10.870;2023-04-08T12:19:20;97069.31;;;6.47;100.00
32933;BME280;19444;50.518;10.870;2023-04-08T12:22:17;97067.75;;;6.41;100.00
32933;BME280;19444;50.518;10.870;2023-04-08T12:25:14;97068.78;;;6.45;100.00
32933;BME280;19444;50.518;10.870;2023-04-08T12:28:11;97066.66;;;6.37;100.00
32933;BME280;19444;50.518;10.870;2023-04-08T12:31:08;97084.16;;;5.92;100.00
32933;BME280;19444;50.518;10.870;2023-04-08T12:34:05;97076.97;;;5.92;100.00
32933;BME280;19444;50.518;10.870;2023-04-08T12:37:02;97076.66;;;5.84;100.00
32933;BME280;19444;50.518;10.870;2023-04-08T12:39:59;97085.75;;;5.88;100.00
32933;BME280;19444;50.518;10.870;2023-04-08T12:42:56;97080.41;;;5.78;100.00
32933;BME280;19444;50.518;10.870;2023-04-08T12:45:53;97080.38;;;5.72;100.00
32933;BME280;19444;50.518;10.870;2023-04-08T12:48:50;97081.75;;;5.85;100.00
32933;BME280;19444;50.518;10.870;2023-04-08T12:52:00;97083.69;;;6.15;100.00
32933;BME280;19444;50.518;10.870;2023-04-08T12:54:56;97072.50;;;6.08;100.00
32933;BME280;19444;50.518;10.870;2023-04-08T12:57:53;97075.41;;;6.12;100.00
32933;BME280;19444;50.518;10.870;2023-04-08T13:00:50;97074.06;;;5.94;100.00
32933;BME280;19444;50.518;10.870;2023-04-08T13:03:47;97083.69;;;6.31;100.00
32933;BME280;19444;50.518;10.870;2023-04-08T13:06:44;97076.50;;;6.36;100.00
32933;BME280;19444;50.518;10.870;2023-04-08T13:09:41;97071.19;;;6.26;100.00
32933;BME280;19444;50.518;10.870;2023-04-08T13:12:41;97079.44;;;6.14;100.00
32933;BME280;19444;50.518;10.870;2023-04-08T13:15:38;97076.75;;;6.19;100.00
32933;BME280;19444;50.518;10.870;2023-04-08T13:18:35;97079.44;;;6.35;100.00
32933;BME280;19444;50.518;10.870;2023-04-08T13:21:32;97077.31;;;6.37;100.00
32933;BME280;19444;50.518;10.870;2023-04-08T13:24:29;97082.22;;;7.30;100.00
32933;BME280;19444;50.518;10.870;2023-04-08T13:27:26;97072.75;;;6.88;100.00
32933;BME280;19444;50.518;10.870;2023-04-08T13:30:22;97072.91;;;7.32;100.00
32933;BME280;19444;50.518;10.870;2023-04-08T13:33:19;97076.75;;;6.96;100.00
32933;BME280;19444;50.518;10.870;2023-04-08T13:36:17;97089.38;;;7.39;100.00
32933;BME280;19444;50.518;10.870;2023-04-08T13:39:14;97075.59;;;7.17;100.00
32933;BME280;19444;50.518;10.870;2023-04-08T13:42:11;97073.97;;;7.21;100.00
32933;BME280;19444;50.518;10.870;2023-04-08T13:45:08;97080.78;;;7.58;100.00
32933;BME280;19444;50.518;10.870;2023-04-08T13:48:05;97069.50;;;7.76;100.00
32933;BME280;19444;50.518;10.870;2023-04-08T13:51:03;97072.25;;;7.56;100.00
32933;BME280;19444;50.518;10.870;2023-04-08T13:54:00;97078.25;;;7.32;100.00
32933;BME280;19444;50.518;10.870;2023-04-08T13:56:56;97080.19;;;6.96;100.00
32933;BME280;19444;50.518;10.870;2023-04-08T13:59:53;97092.97;;;6.94;100.00
32933;BME280;19444;50.518;10.870;2023-04-08T14:02:50;97089.28;;;6.39;100.00
32933;BME280;19444;50.518;10.870;2023-04-08T14:05:48;97094.88;;;6.33;100.00
32933;BME280;19444;50.518;10.870;2023-04-08T14:08:46;97094.63;;;6.54;100.00
32933;BME280;19444;50.518;10.870;2023-04-08T14:11:43;97089.28;;;6.75;100.00
32933;BME280;19444;50.518;10.870;2023-04-08T14:14:40;97091.94;;;6.75;100.00
32933;BME280;19444;50.518;10.870;2023-04-08T14:17:37;97090.31;;;6.94;100.00
32933;BME280;19444;50.518;10.870;2023-04-08T14:20:34;97087.66;;;6.84;100.00
32933;BME280;19444;50.518;10.870;2023-04-08T14:23:31;97085.28;;;6.88;100.00
32933;BME280;19444;50.518;10.870;2023-04-08T14:26:28;97086.84;;;6.94;100.00
32933;BME280;19444;50.518;10.870;2023-04-08T14:29:25;97075.59;;;8.65;100.00
32933;BME280;19444;50.518;10.870;2023-04-08T14:32:23;97078.63;;;8.14;100.00
32933;BME280;19444;50.518;10.870;2023-04-08T14:35:20;97088.25;;;7.61;100.00
32933;BME280;19444;50.518;10.870;2023-04-08T14:38:17;97094.03;;;7.13;100.00
32933;BME280;19444;50.518;10.870;2023-04-08T14:41:16;97097.00;;;6.87;100.00
32933;BME280;19444;50.518;10.870;2023-04-08T14:44:13;97094.34;;;6.56;100.00
32933;BME280;19444;50.518;10.870;2023-04-08T14:47:09;97108.47;;;6.72;100.00
32933;BME280;19444;50.518;10.870;2023-04-08T14:50:08;97103.94;;;6.52;100.00
32933;BME280;19444;50.518;10.870;2023-04-08T14:53:05;97107.41;;;6.52;100.00
32933;BME280;19444;50.518;10.870;2023-04-08T14:56:02;97098.59;;;6.67;100.00
32933;BME280;19444;50.518;10.870;2023-04-08T14:58:59;97091.69;;;6.56;100.00
32933;BME280;19444;50.518;10.870;2023-04-08T15:01:56;97089.84;;;8.11;100.00
32933;BME280;19444;50.518;10.870;2023-04-08T15:04:53;97085.38;;;8.02;100.00
32933;BME280;19444;50.518;10.870;2023-04-08T15:07:50;97085.84;;;9.35;100.00
32933;BME280;19444;50.518;10.870;2023-04-08T15:10:47;97093.88;;;7.54;100.00
32933;BME280;19444;50.518;10.870;2023-04-08T15:13:44;97094.19;;;7.43;100.00
32933;BME280;19444;50.518;10.870;2023-04-08T15:16:41;97097.28;;;7.70;100.00
32933;BME280;19444;50.518;10.870;2023-04-08T15:19:38;97095.66;;;7.74;100.00
32933;BME280;19444;50.518;10.870;2023-04-08T15:22:35;97098.19;;;7.40;100.00
32933;BME280;19444;50.518;10.870;2023-04-08T15:25:32;97102.72;;;7.45;100.00
32933;BME280;19444;50.518;10.870;2023-04-08T15:28:28;97106.22;;;7.30;100.00
32933;BME280;19444;50.518;10.870;2023-04-08T15:31:25;97110.28;;;7.02;100.00